Kezdőlap
METAR-TAF:

METAR-TAF

Repülőterek :

Nagybánya, Románia

földrajzi szélesség: 47-40N, földrajzi hosszúság: 023-35E, magasság: 218 m

Jelenlegi meteorológiai megfigyelések

A jelentés 23 perccel ezelõtt készült, 19:30 UTC
Északkeleti szél 6 kt
Hőmérséklet 3°C
Páratartalom 48%
Légköri nyomás 1032 hPa
Látótávolság 10 km, vagy több

METAR: LRBM 161930Z AUTO 05006KT 9999 FEW037/// SCT230/// 03/M07 Q1032

Idő: 21:53 (19:53 UTC)

Előrejelzés

A jelentés 5 órával és 53 perccel ezelõtt készült, 14:00 UTC
Az előrejelzés 16-én 15 óra UTC és 16-én 24 óra UTC között érvényes
Kelet-északkeleti szél 5 kt
Látótávolság 10 km, vagy több
felhőtlen 1500 m magasságban, és nincs gomolyfelhõ

TAF: LRBM 161400Z 1615/1624 07005KT CAVOK

Meteorológiai megfigyelések és előrejelzések több, mint 4000 repülőtéren (METAR és TAF jelentéseket).

A térképen piros és sárga pontok jelzik az elérhető meteorológiai állomásokat.

Mozgassa az egeret a pont fölött, hogy megjelenjen az állomás neve.

Azután kattintson az időjárási megfigyelések és előrejelzések megtekintéséhez.

A térkép megváltoztatása: kattintson a fekete keresztel jelölt zöld gombra ráközelítéshez, a vonallal jelölt zöld gombra távolításhoz, vagy a zöld nyilakra a szomszédos térképek eléréséhez.


METAR-TAF: